createdAt,value
2023-02-14T00:00:48.612Z,3.59
2023-02-14T00:03:27.872Z,3.86
2023-02-14T00:06:00.353Z,4.03
2023-02-14T00:08:29.682Z,4.00
2023-02-14T00:11:02.127Z,4.06
2023-02-14T00:13:31.763Z,4.13
2023-02-14T00:16:05.691Z,4.16
2023-02-14T00:18:54.622Z,4.29
2023-02-14T00:21:27.811Z,4.30
2023-02-14T00:24:00.185Z,4.21
2023-02-14T00:26:29.421Z,4.13
2023-02-14T00:28:58.796Z,4.19
2023-02-14T00:31:31.218Z,4.31
2023-02-14T00:34:06.693Z,4.38
2023-02-14T00:36:35.596Z,4.42
2023-02-14T00:39:08.848Z,4.50
2023-02-14T00:41:40.892Z,4.49
2023-02-14T00:44:15.130Z,4.53
2023-02-14T00:46:46.964Z,4.60
2023-02-14T00:49:18.181Z,4.49
2023-02-14T00:52:37.104Z,4.47
2023-02-14T00:55:08.389Z,4.54
2023-02-14T00:57:39.585Z,4.58
2023-02-14T01:00:12.768Z,4.62
2023-02-14T01:02:42.882Z,4.61
2023-02-14T01:05:12.922Z,4.68
2023-02-14T01:07:42.361Z,4.55
2023-02-14T01:10:14.160Z,4.52
2023-02-14T01:12:44.717Z,4.47
2023-02-14T01:15:17.274Z,4.44
2023-02-14T01:17:47.564Z,4.48
2023-02-14T01:20:19.026Z,4.45
2023-02-14T01:22:48.066Z,4.46
2023-02-14T01:25:19.722Z,4.48
2023-02-14T01:27:48.900Z,4.49
2023-02-14T01:30:22.005Z,4.49
2023-02-14T01:32:50.701Z,4.55
2023-02-14T01:35:20.138Z,4.56
2023-02-14T01:37:51.484Z,4.52
2023-02-14T01:40:25.839Z,4.55
2023-02-14T01:42:55.252Z,4.52
2023-02-14T01:45:27.138Z,4.50
2023-02-14T01:47:57.438Z,4.46
2023-02-14T01:50:31.154Z,4.39
2023-02-14T01:53:04.144Z,4.37
2023-02-14T01:55:35.167Z,4.29
2023-02-14T01:58:11.186Z,4.35
2023-02-14T02:00:57.917Z,4.39
2023-02-14T02:03:35.036Z,4.45
2023-02-14T02:06:26.934Z,4.57
2023-02-14T02:09:05.519Z,4.59
2023-02-14T02:11:36.070Z,4.59
2023-02-14T02:14:06.957Z,4.61
2023-02-14T02:16:54.674Z,4.62
2023-02-14T02:19:34.461Z,4.57
2023-02-14T02:22:26.237Z,4.47
2023-02-14T02:24:57.572Z,4.49
2023-02-14T02:27:27.696Z,4.47
2023-02-14T02:30:26.120Z,4.32
2023-02-14T02:33:16.267Z,4.35
2023-02-14T02:36:09.392Z,4.42
2023-02-14T02:39:11.891Z,4.35
2023-02-14T02:42:01.388Z,4.35
2023-02-14T02:54:01.542Z,4.54
2023-02-14T03:13:07.167Z,4.58
2023-02-14T03:16:08.526Z,4.67
2023-02-14T03:18:59.383Z,4.64
2023-02-14T03:21:52.017Z,4.62
2023-02-14T03:24:39.523Z,4.63
2023-02-14T03:27:21.930Z,4.57
2023-02-14T03:30:17.205Z,4.53
2023-02-14T03:32:51.093Z,4.58
2023-02-14T03:35:34.188Z,4.59
2023-02-14T03:38:15.971Z,4.57
2023-02-14T03:40:55.133Z,4.55
2023-02-14T03:43:37.216Z,4.47
2023-02-14T03:46:10.770Z,4.49
2023-02-14T03:48:42.564Z,4.52
2023-02-14T03:51:14.044Z,4.51
2023-02-14T03:57:58.997Z,4.44
2023-02-14T04:00:29.686Z,4.42
2023-02-14T04:03:05.136Z,4.45
2023-02-14T04:05:38.334Z,4.44
2023-02-14T04:08:11.094Z,4.46
2023-02-14T04:10:42.661Z,4.49
2023-02-14T04:13:13.293Z,4.50
2023-02-14T04:15:44.795Z,4.53
2023-02-14T04:18:34.197Z,4.44
2023-02-14T04:21:06.480Z,4.35
2023-02-14T04:23:37.322Z,4.49
2023-02-14T04:26:10.335Z,4.55
2023-02-14T04:28:40.309Z,4.54
2023-02-14T04:31:11.846Z,4.36
2023-02-14T04:33:40.900Z,4.35
2023-02-14T04:36:10.752Z,4.34
2023-02-14T04:38:41.580Z,4.36
2023-02-14T04:41:12.833Z,4.40
2023-02-14T04:43:42.242Z,4.41
2023-02-14T04:46:11.775Z,4.42
2023-02-14T04:48:43.919Z,4.45
2023-02-14T04:51:13.023Z,4.41
2023-02-14T04:53:45.818Z,4.35
2023-02-14T04:56:18.157Z,4.40
2023-02-14T04:58:47.771Z,4.45
2023-02-14T05:01:18.818Z,4.44
2023-02-14T05:03:51.475Z,4.33
2023-02-14T05:06:23.150Z,4.33
2023-02-14T05:08:53.046Z,4.37
2023-02-14T05:11:23.318Z,4.44
2023-02-14T05:13:54.837Z,4.42
2023-02-14T05:16:27.165Z,4.39
2023-02-14T05:18:57.739Z,4.39
2023-02-14T05:21:28.426Z,4.36
2023-02-14T05:23:59.527Z,4.30
2023-02-14T05:26:29.062Z,4.33
2023-02-14T05:29:00.510Z,4.41
2023-02-14T05:31:31.249Z,4.44
2023-02-14T05:34:01.145Z,4.46
2023-02-14T05:36:31.788Z,4.46
2023-02-14T05:39:02.664Z,4.43
2023-02-14T05:41:33.898Z,4.49
2023-02-14T05:44:04.427Z,4.54
2023-02-14T05:46:35.815Z,4.52
2023-02-14T05:49:04.696Z,4.45
2023-02-14T05:51:38.249Z,4.42
2023-02-14T05:54:10.870Z,4.36
2023-02-14T05:56:43.091Z,4.35
2023-02-14T05:59:14.661Z,4.35
2023-02-14T06:01:45.515Z,4.33
2023-02-14T06:04:14.588Z,4.33
2023-02-14T06:06:44.108Z,4.33
2023-02-14T06:09:16.016Z,4.41
2023-02-14T06:11:45.699Z,4.52
2023-02-14T06:14:14.968Z,4.49
2023-02-14T06:16:46.498Z,4.47
2023-02-14T06:19:16.969Z,4.48
2023-02-14T06:21:47.529Z,4.54
2023-02-14T06:24:16.927Z,4.53
2023-02-14T06:26:46.469Z,4.46
2023-02-14T06:29:18.564Z,4.44
2023-02-14T06:31:47.791Z,4.42
2023-02-14T06:34:18.231Z,4.43
2023-02-14T06:36:56.591Z,4.44
2023-02-14T06:39:29.197Z,4.46
2023-02-14T06:41:59.873Z,4.45
2023-02-14T06:44:29.662Z,4.38
2023-02-14T06:46:59.153Z,4.37
2023-02-14T06:49:29.762Z,4.38
2023-02-14T06:52:02.087Z,4.50
2023-02-14T06:54:32.332Z,4.61
2023-02-14T06:57:01.499Z,4.61
2023-02-14T06:59:30.183Z,4.61
2023-02-14T07:02:01.597Z,4.66
2023-02-14T07:04:31.404Z,4.52
2023-02-14T07:07:05.641Z,4.56
2023-02-14T07:09:34.697Z,4.67
2023-02-14T07:12:07.248Z,4.68
2023-02-14T07:14:39.441Z,4.66
2023-02-14T07:17:44.280Z,4.59
2023-02-14T07:20:08.610Z,4.53
2023-02-14T07:22:39.981Z,4.48
2023-02-14T07:25:12.584Z,4.46
2023-02-14T07:27:44.221Z,4.51
2023-02-14T07:30:14.330Z,4.62
2023-02-14T07:32:45.154Z,4.64
2023-02-14T07:35:15.297Z,4.61
2023-02-14T07:37:44.257Z,4.56
2023-02-14T07:40:15.510Z,4.56
2023-02-14T07:42:45.852Z,4.63
2023-02-14T07:45:22.037Z,4.64
2023-02-14T07:47:54.806Z,4.55
2023-02-14T07:50:26.525Z,4.43
2023-02-14T07:52:57.270Z,4.41
2023-02-14T07:55:28.650Z,4.41
2023-02-14T07:57:59.499Z,4.50
2023-02-14T08:00:29.716Z,4.62
2023-02-14T08:02:59.970Z,4.62
2023-02-14T08:05:31.086Z,4.65
2023-02-14T08:07:59.951Z,4.64
2023-02-14T08:10:28.912Z,4.64
2023-02-14T08:12:59.319Z,4.73
2023-02-14T08:15:51.607Z,4.72
2023-02-14T08:18:23.377Z,4.73
2023-02-14T08:20:52.392Z,4.68
2023-02-14T08:23:23.051Z,4.74
2023-02-14T08:25:53.219Z,4.83
2023-02-14T08:28:24.270Z,4.83
2023-02-14T08:30:55.435Z,4.83
2023-02-14T08:33:26.945Z,4.88
2023-02-14T08:35:56.956Z,4.98
2023-02-14T08:38:25.888Z,5.00
2023-02-14T08:41:03.794Z,5.05
2023-02-14T08:43:36.534Z,5.13
2023-02-14T08:46:08.595Z,5.21
2023-02-14T08:48:39.422Z,5.27
2023-02-14T08:51:09.322Z,5.39
2023-02-14T08:53:40.254Z,5.55
2023-02-14T08:56:11.034Z,5.57
2023-02-14T08:58:40.992Z,5.60
2023-02-14T09:01:11.105Z,5.57
2023-02-14T09:03:40.432Z,5.48
2023-02-14T09:06:11.375Z,5.47
2023-02-14T09:08:41.778Z,5.49
2023-02-14T09:11:12.179Z,5.59
2023-02-14T09:13:41.910Z,5.70
2023-02-14T09:16:12.578Z,5.81
2023-02-14T09:18:41.726Z,5.87
2023-02-14T09:21:14.031Z,5.96
2023-02-14T09:23:42.973Z,6.13
2023-02-14T09:26:12.741Z,6.29
2023-02-14T09:28:41.756Z,6.31
2023-02-14T09:31:13.001Z,6.31
2023-02-14T09:34:00.909Z,6.43
2023-02-14T09:36:48.997Z,6.61
2023-02-14T09:39:19.372Z,6.76
2023-02-14T09:42:10.426Z,6.85
2023-02-14T09:44:47.253Z,6.93
2023-02-14T09:47:33.033Z,6.99
2023-02-14T09:50:07.449Z,7.06
2023-02-14T09:52:38.690Z,7.26
2023-02-14T09:55:13.725Z,7.34
2023-02-14T09:57:51.203Z,7.32
2023-02-14T10:00:28.271Z,7.28
2023-02-14T10:03:12.958Z,7.50
2023-02-14T10:05:55.551Z,8.16
2023-02-14T10:08:35.842Z,8.35
2023-02-14T10:11:08.634Z,8.46
2023-02-14T10:13:47.433Z,8.41
2023-02-14T10:16:20.906Z,8.29
2023-02-14T10:18:55.506Z,8.07
2023-02-14T10:21:33.800Z,7.84
2023-02-14T10:24:12.092Z,7.51
2023-02-14T10:26:46.009Z,7.41
2023-02-14T10:29:20.833Z,7.53
2023-02-14T10:31:57.750Z,7.58
2023-02-14T10:34:58.412Z,7.71
2023-02-14T10:37:30.780Z,8.02
2023-02-14T10:40:03.471Z,8.13
2023-02-14T10:42:44.236Z,8.03
2023-02-14T10:45:25.926Z,7.85
2023-02-14T10:47:56.022Z,7.85
2023-02-14T10:50:28.500Z,7.88
2023-02-14T10:53:05.118Z,7.84
2023-02-14T10:55:48.699Z,7.88
2023-02-14T10:58:20.172Z,7.94
2023-02-14T11:00:54.928Z,7.99
2023-02-14T11:03:27.105Z,8.04
2023-02-14T11:05:56.993Z,8.05
2023-02-14T11:08:29.606Z,8.23
2023-02-14T11:11:08.127Z,8.56
2023-02-14T11:13:40.064Z,8.52
2023-02-14T11:16:10.998Z,8.55
2023-02-14T11:18:41.767Z,8.64
2023-02-14T11:21:13.566Z,8.95
2023-02-14T11:23:48.133Z,8.93
2023-02-14T11:26:22.841Z,8.97
2023-02-14T11:29:01.454Z,9.09
2023-02-14T11:31:34.375Z,10.34
2023-02-14T11:34:05.238Z,10.93
2023-02-14T11:36:40.750Z,11.14
2023-02-14T11:39:40.709Z,11.26
2023-02-14T11:42:14.147Z,12.32
2023-02-14T11:44:56.593Z,13.99
2023-02-14T11:47:29.127Z,15.25
2023-02-14T11:50:01.493Z,15.90
2023-02-14T11:52:59.524Z,16.61
2023-02-14T11:55:34.041Z,17.35
2023-02-14T11:58:05.902Z,16.72
2023-02-14T12:00:35.591Z,15.43
2023-02-14T12:03:07.651Z,14.55
2023-02-14T12:05:49.321Z,14.39
2023-02-14T12:08:25.355Z,14.90
2023-02-14T12:11:18.500Z,15.97
2023-02-14T12:13:54.277Z,16.80
2023-02-14T12:16:28.285Z,17.04
2023-02-14T12:18:59.755Z,17.11
2023-02-14T12:21:51.948Z,17.01
2023-02-14T12:24:43.363Z,16.92
2023-02-14T12:27:12.977Z,17.37
2023-02-14T12:29:46.066Z,17.64
2023-02-14T12:32:30.489Z,18.01
2023-02-14T12:35:18.214Z,17.90
2023-02-14T12:37:50.809Z,17.82
2023-02-14T12:40:36.921Z,17.13
2023-02-14T12:43:25.750Z,17.24
2023-02-14T12:45:57.263Z,17.26
2023-02-14T12:48:30.918Z,17.60
2023-02-14T12:51:00.158Z,17.86
2023-02-14T12:53:43.040Z,18.09
2023-02-14T12:56:25.868Z,18.13
2023-02-14T12:59:10.828Z,18.02
2023-02-14T13:01:43.487Z,16.88
2023-02-14T13:04:15.024Z,16.22
2023-02-14T13:07:08.452Z,16.09
2023-02-14T13:09:50.563Z,15.90
2023-02-14T13:12:37.268Z,15.43
2023-02-14T13:15:10.879Z,15.22
2023-02-14T13:17:59.059Z,14.87
2023-02-14T13:20:52.593Z,14.63
2023-02-14T13:23:38.406Z,14.35
2023-02-14T13:26:32.520Z,13.69
2023-02-14T13:29:06.930Z,13.83
2023-02-14T13:31:38.081Z,13.93
2023-02-14T13:34:07.429Z,13.10
2023-02-14T13:36:38.358Z,13.26
2023-02-14T13:39:08.669Z,13.35
2023-02-14T13:41:42.166Z,12.96
2023-02-14T13:44:12.815Z,12.94
2023-02-14T13:46:44.693Z,12.93
2023-02-14T13:49:26.096Z,12.76
2023-02-14T13:52:21.880Z,12.87
2023-02-14T13:54:51.600Z,13.15
2023-02-14T13:57:37.285Z,13.33
2023-02-14T14:00:20.228Z,13.44
2023-02-14T14:02:57.859Z,13.56
2023-02-14T14:05:31.448Z,13.69
2023-02-14T14:08:20.723Z,13.73
2023-02-14T14:10:56.161Z,13.93
2023-02-14T14:13:46.724Z,13.74
2023-02-14T14:16:28.241Z,13.17
2023-02-14T14:19:03.017Z,12.69
2023-02-14T14:21:33.544Z,12.68
2023-02-14T14:24:04.490Z,12.69
2023-02-14T14:26:42.855Z,12.61
2023-02-14T14:29:28.309Z,12.38
2023-02-14T14:31:58.173Z,12.26
2023-02-14T14:34:30.617Z,12.22
2023-02-14T14:37:05.185Z,12.25
2023-02-14T14:39:36.774Z,12.24
2023-02-14T14:42:10.563Z,12.20
2023-02-14T14:44:45.914Z,12.06
2023-02-14T14:47:20.680Z,11.98
2023-02-14T14:49:50.304Z,11.85
2023-02-14T14:52:31.012Z,11.70
2023-02-14T14:55:01.417Z,11.47
2023-02-14T14:57:30.960Z,11.22
2023-02-14T15:00:18.565Z,11.08
2023-02-14T15:03:08.558Z,10.86
2023-02-14T15:05:45.848Z,10.65
2023-02-14T15:08:22.801Z,10.35
2023-02-14T15:10:52.900Z,9.89
2023-02-14T15:13:58.195Z,9.47
2023-02-14T15:16:37.467Z,9.07
2023-02-14T15:19:17.065Z,8.83
2023-02-14T15:22:13.364Z,8.55
2023-02-14T15:24:59.017Z,8.27
2023-02-14T15:27:40.032Z,8.05
2023-02-14T15:30:19.833Z,7.73
2023-02-14T15:32:55.518Z,7.31
2023-02-14T15:35:35.372Z,6.94
2023-02-14T15:38:16.629Z,6.68
2023-02-14T15:41:08.324Z,6.43
2023-02-14T15:44:05.288Z,6.26
2023-02-14T15:46:49.569Z,6.07
2023-02-14T15:49:51.151Z,5.89
2023-02-14T15:52:50.752Z,5.73
2023-02-14T15:55:23.844Z,5.60
2023-02-14T15:58:03.660Z,5.53
2023-02-14T16:00:33.408Z,5.51
2023-02-14T16:03:11.674Z,5.50
2023-02-14T16:05:48.162Z,5.47
2023-02-14T16:08:33.392Z,5.48
2023-02-14T16:11:08.188Z,5.48
2023-02-14T16:13:43.917Z,5.55
2023-02-14T16:16:16.803Z,5.56
2023-02-14T16:18:58.981Z,5.51
2023-02-14T16:21:31.761Z,5.47
2023-02-14T16:24:07.108Z,5.45
2023-02-14T16:26:43.821Z,5.43
2023-02-14T16:29:16.650Z,5.40
2023-02-14T16:32:15.582Z,5.39
2023-02-14T16:34:41.872Z,5.42
2023-02-14T16:37:26.091Z,5.48
2023-02-14T16:40:01.594Z,5.58
2023-02-14T16:42:33.668Z,5.66
2023-02-14T16:45:07.280Z,5.57
2023-02-14T16:50:23.197Z,5.33
2023-02-14T16:52:53.919Z,5.21
2023-02-14T16:55:28.110Z,5.19
2023-02-14T16:57:59.925Z,5.17
2023-02-14T17:00:30.920Z,5.10
2023-02-14T17:03:07.753Z,4.96
2023-02-14T17:05:40.826Z,4.89
2023-02-14T17:08:16.395Z,4.87
2023-02-14T17:13:59.611Z,4.87
2023-02-14T17:16:33.793Z,4.82
2023-02-14T17:19:05.838Z,4.81
2023-02-14T17:21:39.780Z,4.71
2023-02-14T17:24:10.601Z,4.63
2023-02-14T17:26:48.970Z,4.57
2023-02-14T17:29:20.874Z,4.51
2023-02-14T17:31:56.353Z,4.46
2023-02-14T17:34:30.280Z,4.43
2023-02-14T17:37:03.955Z,4.42
2023-02-14T17:39:41.050Z,4.51
2023-02-14T17:42:12.836Z,4.52
2023-02-14T17:44:47.676Z,4.55
2023-02-14T17:47:25.146Z,4.56
2023-02-14T17:50:02.263Z,4.53
2023-02-14T17:53:02.589Z,4.49
2023-02-14T17:55:35.496Z,4.54
2023-02-14T17:58:16.142Z,4.67
2023-02-14T18:00:47.756Z,4.67
2023-02-14T18:03:20.010Z,4.61
2023-02-14T18:05:54.002Z,4.64
2023-02-14T18:08:25.004Z,4.68
2023-02-14T18:10:59.051Z,4.65
2023-02-14T18:13:37.232Z,4.51
2023-02-14T18:16:10.555Z,4.44
2023-02-14T18:18:42.340Z,4.40
2023-02-14T18:21:24.752Z,4.25
2023-02-14T18:24:03.184Z,4.08
2023-02-14T18:26:38.958Z,4.03
2023-02-14T18:29:13.381Z,4.01
2023-02-14T18:31:45.952Z,3.96
2023-02-14T18:34:40.447Z,3.71
2023-02-14T18:37:16.169Z,3.44
2023-02-14T18:39:48.470Z,3.27
2023-02-14T18:42:20.145Z,3.17
2023-02-14T18:44:54.532Z,3.11
2023-02-14T18:47:25.897Z,3.01
2023-02-14T18:49:58.794Z,2.89
2023-02-14T18:52:29.183Z,2.99
2023-02-14T18:55:00.777Z,3.08
2023-02-14T18:57:34.531Z,3.14
2023-02-14T19:00:08.741Z,3.17
2023-02-14T19:02:42.795Z,3.18
2023-02-14T19:05:13.692Z,3.21
2023-02-14T19:07:46.774Z,3.26
2023-02-14T19:10:21.166Z,3.23
2023-02-14T19:12:55.426Z,3.20
2023-02-14T19:15:33.082Z,3.15
2023-02-14T19:18:05.339Z,3.12
2023-02-14T19:20:41.917Z,3.16
2023-02-14T19:23:13.920Z,3.14
2023-02-14T19:25:48.299Z,3.07
2023-02-14T19:28:20.690Z,2.99
2023-02-14T19:30:56.341Z,2.90
2023-02-14T19:33:27.232Z,2.84
2023-02-14T19:36:03.836Z,2.77
2023-02-14T19:38:37.346Z,2.72
2023-02-14T19:41:17.789Z,2.64
2023-02-14T19:43:52.820Z,2.60
2023-02-14T19:46:27.471Z,2.52
2023-02-14T19:49:05.431Z,2.45
2023-02-14T19:51:41.057Z,2.32
2023-02-14T19:57:59.070Z,2.07
2023-02-14T20:00:32.885Z,2.00
2023-02-14T20:03:07.270Z,1.89
2023-02-14T20:05:52.400Z,1.81
2023-02-14T20:08:30.114Z,1.78
2023-02-14T20:11:03.247Z,1.68
2023-02-14T20:13:37.197Z,1.62
2023-02-14T20:17:07.964Z,1.56
2023-02-14T20:19:47.250Z,1.48
2023-02-14T20:22:24.237Z,1.48
2023-02-14T20:25:00.285Z,1.48
2023-02-14T20:27:39.014Z,1.48
2023-02-14T20:30:16.597Z,1.43
2023-02-14T20:32:49.580Z,1.39
2023-02-14T20:35:24.163Z,1.36
2023-02-14T20:38:03.240Z,1.35
2023-02-14T20:40:44.630Z,1.34
2023-02-14T20:43:20.111Z,1.31
2023-02-14T20:45:54.577Z,1.28
2023-02-14T20:48:32.862Z,1.25
2023-02-14T20:51:13.809Z,1.22
2023-02-14T20:53:45.654Z,1.19
2023-02-14T20:56:25.859Z,1.18
2023-02-14T20:58:59.755Z,1.21
2023-02-14T21:01:35.256Z,1.26
2023-02-14T21:04:11.485Z,1.31
2023-02-14T21:06:44.022Z,1.35
2023-02-14T21:09:21.638Z,1.40
2023-02-14T21:11:55.310Z,1.44
2023-02-14T21:14:30.903Z,1.46
2023-02-14T21:17:07.114Z,1.41
2023-02-14T21:19:48.476Z,1.31
2023-02-14T21:22:25.310Z,1.17
2023-02-14T21:25:00.950Z,1.04
2023-02-14T21:27:34.677Z,0.92
2023-02-14T21:30:09.468Z,0.84
2023-02-14T21:32:42.301Z,0.79
2023-02-14T21:35:12.944Z,0.77
2023-02-14T21:37:48.516Z,0.75
2023-02-14T21:40:24.799Z,0.71
2023-02-14T21:43:02.584Z,0.65
2023-02-14T21:45:55.242Z,0.58
2023-02-14T21:48:46.621Z,0.54
2023-02-14T21:51:21.670Z,0.54
2023-02-14T21:54:06.593Z,0.57
2023-02-14T21:56:46.669Z,0.58
2023-02-14T21:59:20.478Z,0.64
2023-02-14T22:01:51.440Z,0.69
2023-02-14T22:04:30.823Z,0.70
2023-02-14T22:07:05.869Z,0.68
2023-02-14T22:09:37.096Z,0.68
2023-02-14T22:12:12.181Z,0.68
2023-02-14T22:14:45.791Z,0.65
2023-02-14T22:17:16.952Z,0.64
2023-02-14T22:19:47.964Z,0.60
2023-02-14T22:22:18.149Z,0.58
2023-02-14T22:24:51.306Z,0.57
2023-02-14T22:27:22.048Z,0.60
2023-02-14T22:29:51.522Z,0.61
2023-02-14T22:32:25.606Z,0.64
2023-02-14T22:34:58.573Z,0.67
2023-02-14T22:37:30.476Z,0.69
2023-02-14T22:40:02.438Z,0.71
2023-02-14T22:42:34.637Z,0.74
2023-02-14T22:45:04.200Z,0.77
2023-02-14T22:47:35.602Z,0.80
2023-02-14T22:50:07.509Z,0.84
2023-02-14T22:53:03.922Z,0.87
2023-02-14T22:55:35.233Z,0.89
2023-02-14T22:58:11.674Z,0.92
2023-02-14T23:00:45.941Z,0.94
2023-02-14T23:03:17.846Z,0.94
2023-02-14T23:05:49.573Z,0.98
2023-02-14T23:08:21.576Z,1.02
2023-02-14T23:10:55.289Z,1.03
2023-02-14T23:13:56.279Z,1.06
2023-02-14T23:16:46.250Z,1.11
2023-02-14T23:19:36.967Z,1.13
2023-02-14T23:22:12.809Z,1.14
2023-02-14T23:24:43.878Z,1.15
2023-02-14T23:27:14.395Z,1.15
2023-02-14T23:29:46.108Z,1.15
2023-02-14T23:32:18.784Z,1.16
2023-02-14T23:34:49.547Z,1.15
2023-02-14T23:37:19.226Z,1.18
2023-02-14T23:39:50.657Z,1.20
2023-02-14T23:42:20.798Z,1.24
2023-02-14T23:44:54.888Z,1.30
2023-02-14T23:47:26.788Z,1.35
2023-02-14T23:49:57.046Z,1.37
2023-02-14T23:52:30.554Z,1.41
2023-02-14T23:55:07.493Z,1.44
2023-02-14T23:57:40.720Z,1.49
